sensor_id;sensor_type;location;lat;lon;timestamp;temperature;humidity
52743;DHT22;55583;53.012;6.556;2023-08-21T00:01:28;15.60;99.90
52743;DHT22;55583;53.012;6.556;2023-08-21T00:03:54;15.60;99.90
52743;DHT22;55583;53.012;6.556;2023-08-21T00:06:20;15.50;99.90
52743;DHT22;55583;53.012;6.556;2023-08-21T00:08:45;15.50;99.90
52743;DHT22;55583;53.012;6.556;2023-08-21T00:11:12;15.50;99.90
52743;DHT22;55583;53.012;6.556;2023-08-21T00:13:37;15.40;99.90
52743;DHT22;55583;53.012;6.556;2023-08-21T00:16:03;15.40;99.90
52743;DHT22;55583;53.012;6.556;2023-08-21T00:18:29;15.40;99.90
52743;DHT22;55583;53.012;6.556;2023-08-21T00:20:54;15.30;99.90
52743;DHT22;55583;53.012;6.556;2023-08-21T00:23:20;15.30;99.90
52743;DHT22;55583;53.012;6.556;2023-08-21T00:25:47;15.30;99.90
52743;DHT22;55583;53.012;6.556;2023-08-21T00:28:13;15.20;99.90
52743;DHT22;55583;53.012;6.556;2023-08-21T00:30:38;15.20;99.90
52743;DHT22;55583;53.012;6.556;2023-08-21T00:33:04;15.20;99.90
52743;DHT22;55583;53.012;6.556;2023-08-21T00:35:30;15.10;99.90
52743;DHT22;55583;53.012;6.556;2023-08-21T00:37:56;15.10;99.90
52743;DHT22;55583;53.012;6.556;2023-08-21T00:40:21;15.10;99.90
52743;DHT22;55583;53.012;6.556;2023-08-21T00:42:47;15.10;99.90
52743;DHT22;55583;53.012;6.556;2023-08-21T00:45:12;15.10;99.90
52743;DHT22;55583;53.012;6.556;2023-08-21T00:47:39;15.00;99.90
52743;DHT22;55583;53.012;6.556;2023-08-21T00:50:06;15.00;99.90
52743;DHT22;55583;53.012;6.556;2023-08-21T00:52:33;14.90;99.90
52743;DHT22;55583;53.012;6.556;2023-08-21T00:55:00;14.80;99.90
52743;DHT22;55583;53.012;6.556;2023-08-21T00:57:26;14.80;99.90
52743;DHT22;55583;53.012;6.556;2023-08-21T00:59:52;14.80;99.90
52743;DHT22;55583;53.012;6.556;2023-08-21T01:02:18;14.70;99.90
52743;DHT22;55583;53.012;6.556;2023-08-21T01:04:44;14.70;99.90
52743;DHT22;55583;53.012;6.556;2023-08-21T01:07:10;14.70;99.90
52743;DHT22;55583;53.012;6.556;2023-08-21T01:13:36;14.70;99.90
52743;DHT22;55583;53.012;6.556;2023-08-21T01:15:28;14.70;99.90
52743;DHT22;55583;53.012;6.556;2023-08-21T01:17:55;14.60;99.90
52743;DHT22;55583;53.012;6.556;2023-08-21T01:20:21;14.60;99.90
52743;DHT22;55583;53.012;6.556;2023-08-21T01:22:47;14.60;99.90
52743;DHT22;55583;53.012;6.556;2023-08-21T01:25:13;14.60;99.90
52743;DHT22;55583;53.012;6.556;2023-08-21T01:27:46;14.50;99.90
52743;DHT22;55583;53.012;6.556;2023-08-21T01:30:13;14.50;99.90
52743;DHT22;55583;53.012;6.556;2023-08-21T01:32:50;14.50;99.90
52743;DHT22;55583;53.012;6.556;2023-08-21T01:35:18;14.40;99.90
52743;DHT22;55583;53.012;6.556;2023-08-21T01:37:45;14.40;99.90
52743;DHT22;55583;53.012;6.556;2023-08-21T01:40:11;14.40;99.90
52743;DHT22;55583;53.012;6.556;2023-08-21T01:42:37;14.40;99.90
52743;DHT22;55583;53.012;6.556;2023-08-21T01:45:03;14.30;99.90
52743;DHT22;55583;53.012;6.556;2023-08-21T01:47:29;14.30;99.90
52743;DHT22;55583;53.012;6.556;2023-08-21T01:49:54;14.30;99.90
52743;DHT22;55583;53.012;6.556;2023-08-21T01:52:20;14.30;99.90
52743;DHT22;55583;53.012;6.556;2023-08-21T01:54:45;14.30;99.90
52743;DHT22;55583;53.012;6.556;2023-08-21T01:57:13;14.20;99.90
52743;DHT22;55583;53.012;6.556;2023-08-21T01:59:39;14.20;99.90
52743;DHT22;55583;53.012;6.556;2023-08-21T02:02:04;14.20;99.90
52743;DHT22;55583;53.012;6.556;2023-08-21T02:04:30;14.10;99.90
52743;DHT22;55583;53.012;6.556;2023-08-21T02:06:56;14.10;99.90
52743;DHT22;55583;53.012;6.556;2023-08-21T02:09:21;14.10;99.90
52743;DHT22;55583;53.012;6.556;2023-08-21T02:11:47;14.10;99.90
52743;DHT22;55583;53.012;6.556;2023-08-21T02:14:12;14.00;99.90
52743;DHT22;55583;53.012;6.556;2023-08-21T02:16:38;14.00;99.90
52743;DHT22;55583;53.012;6.556;2023-08-21T02:19:04;13.90;99.90
52743;DHT22;55583;53.012;6.556;2023-08-21T02:21:29;13.90;99.90
52743;DHT22;55583;53.012;6.556;2023-08-21T02:23:55;13.90;99.90
52743;DHT22;55583;53.012;6.556;2023-08-21T02:26:20;13.80;99.90
52743;DHT22;55583;53.012;6.556;2023-08-21T02:28:46;13.80;99.90
52743;DHT22;55583;53.012;6.556;2023-08-21T02:31:12;13.80;99.90
52743;DHT22;55583;53.012;6.556;2023-08-21T02:33:38;13.80;99.90
52743;DHT22;55583;53.012;6.556;2023-08-21T02:36:04;13.80;99.90
52743;DHT22;55583;53.012;6.556;2023-08-21T02:38:30;13.80;99.90
52743;DHT22;55583;53.012;6.556;2023-08-21T02:40:55;13.80;99.90
52743;DHT22;55583;53.012;6.556;2023-08-21T02:43:21;13.70;99.90
52743;DHT22;55583;53.012;6.556;2023-08-21T02:45:49;13.70;99.90
52743;DHT22;55583;53.012;6.556;2023-08-21T02:48:16;13.60;99.90
52743;DHT22;55583;53.012;6.556;2023-08-21T02:50:41;13.70;99.90
52743;DHT22;55583;53.012;6.556;2023-08-21T02:53:07;13.60;99.90
52743;DHT22;55583;53.012;6.556;2023-08-21T02:55:33;13.60;99.90
52743;DHT22;55583;53.012;6.556;2023-08-21T02:57:58;13.50;99.90
52743;DHT22;55583;53.012;6.556;2023-08-21T03:00:24;13.50;99.90
52743;DHT22;55583;53.012;6.556;2023-08-21T03:02:50;13.50;99.90
52743;DHT22;55583;53.012;6.556;2023-08-21T03:05:15;13.50;99.90
52743;DHT22;55583;53.012;6.556;2023-08-21T03:07:41;13.50;99.90
52743;DHT22;55583;53.012;6.556;2023-08-21T03:10:07;13.50;99.90
52743;DHT22;55583;53.012;6.556;2023-08-21T03:12:33;13.50;99.90
52743;DHT22;55583;53.012;6.556;2023-08-21T03:14:59;13.40;99.90
52743;DHT22;55583;53.012;6.556;2023-08-21T03:17:24;13.40;99.90
52743;DHT22;55583;53.012;6.556;2023-08-21T03:19:50;13.40;99.90
52743;DHT22;55583;53.012;6.556;2023-08-21T03:22:16;13.40;99.90
52743;DHT22;55583;53.012;6.556;2023-08-21T03:24:42;13.40;99.90
52743;DHT22;55583;53.012;6.556;2023-08-21T03:27:07;13.40;99.90
52743;DHT22;55583;53.012;6.556;2023-08-21T03:29:33;13.30;99.90
52743;DHT22;55583;53.012;6.556;2023-08-21T03:31:58;13.30;99.90
52743;DHT22;55583;53.012;6.556;2023-08-21T03:34:24;13.30;99.90
52743;DHT22;55583;53.012;6.556;2023-08-21T03:36:50;13.20;99.90
52743;DHT22;55583;53.012;6.556;2023-08-21T03:39:15;13.30;99.90
52743;DHT22;55583;53.012;6.556;2023-08-21T03:41:41;13.40;99.90
52743;DHT22;55583;53.012;6.556;2023-08-21T03:44:07;13.20;99.90
52743;DHT22;55583;53.012;6.556;2023-08-21T03:46:32;13.20;99.90
52743;DHT22;55583;53.012;6.556;2023-08-21T03:48:58;13.10;99.90
52743;DHT22;55583;53.012;6.556;2023-08-21T03:51:24;13.10;99.90
52743;DHT22;55583;53.012;6.556;2023-08-21T03:53:50;13.10;99.90
52743;DHT22;55583;53.012;6.556;2023-08-21T03:56:15;13.10;99.90
52743;DHT22;55583;53.012;6.556;2023-08-21T03:58:41;13.00;99.90
52743;DHT22;55583;53.012;6.556;2023-08-21T04:01:07;13.00;99.90
52743;DHT22;55583;53.012;6.556;2023-08-21T04:03:32;13.00;99.90
52743;DHT22;55583;53.012;6.556;2023-08-21T04:05:59;13.10;99.90
52743;DHT22;55583;53.012;6.556;2023-08-21T04:08:25;13.00;99.90
52743;DHT22;55583;53.012;6.556;2023-08-21T04:10:50;13.00;99.90
52743;DHT22;55583;53.012;6.556;2023-08-21T04:13:18;13.00;99.90
52743;DHT22;55583;53.012;6.556;2023-08-21T04:15:48;13.00;99.90
52743;DHT22;55583;53.012;6.556;2023-08-21T04:18:14;12.90;99.90
52743;DHT22;55583;53.012;6.556;2023-08-21T04:20:40;12.90;99.90
52743;DHT22;55583;53.012;6.556;2023-08-21T04:23:05;12.90;99.90
52743;DHT22;55583;53.012;6.556;2023-08-21T04:25:31;12.90;99.90
52743;DHT22;55583;53.012;6.556;2023-08-21T04:27:57;12.80;99.90
52743;DHT22;55583;53.012;6.556;2023-08-21T04:30:22;12.80;99.90
52743;DHT22;55583;53.012;6.556;2023-08-21T04:32:48;12.80;99.90
52743;DHT22;55583;53.012;6.556;2023-08-21T04:35:14;12.80;99.90
52743;DHT22;55583;53.012;6.556;2023-08-21T04:37:45;12.80;99.90
52743;DHT22;55583;53.012;6.556;2023-08-21T04:40:11;12.80;99.90
52743;DHT22;55583;53.012;6.556;2023-08-21T04:42:37;12.80;99.90
52743;DHT22;55583;53.012;6.556;2023-08-21T04:45:04;12.80;99.90
52743;DHT22;55583;53.012;6.556;2023-08-21T04:47:31;12.80;99.90
52743;DHT22;55583;53.012;6.556;2023-08-21T04:49:57;12.90;99.90
52743;DHT22;55583;53.012;6.556;2023-08-21T04:52:24;12.80;99.90
52743;DHT22;55583;53.012;6.556;2023-08-21T04:54:50;12.80;99.90
52743;DHT22;55583;53.012;6.556;2023-08-21T04:57:17;12.80;99.90
52743;DHT22;55583;53.012;6.556;2023-08-21T04:59:43;12.80;99.90
52743;DHT22;55583;53.012;6.556;2023-08-21T05:02:09;12.80;99.90
52743;DHT22;55583;53.012;6.556;2023-08-21T05:04:36;12.80;99.90
52743;DHT22;55583;53.012;6.556;2023-08-21T05:07:03;12.80;99.90
52743;DHT22;55583;53.012;6.556;2023-08-21T05:09:29;12.90;99.90
52743;DHT22;55583;53.012;6.556;2023-08-21T05:11:55;12.90;99.90
52743;DHT22;55583;53.012;6.556;2023-08-21T05:14:22;12.90;99.90
52743;DHT22;55583;53.012;6.556;2023-08-21T05:16:48;13.00;99.90
52743;DHT22;55583;53.012;6.556;2023-08-21T05:19:14;13.00;99.90
52743;DHT22;55583;53.012;6.556;2023-08-21T05:21:40;13.00;99.90
52743;DHT22;55583;53.012;6.556;2023-08-21T05:24:06;13.00;99.90
52743;DHT22;55583;53.012;6.556;2023-08-21T05:26:31;13.00;99.90
52743;DHT22;55583;53.012;6.556;2023-08-21T05:28:57;13.10;99.90
52743;DHT22;55583;53.012;6.556;2023-08-21T05:31:23;13.20;99.90
52743;DHT22;55583;53.012;6.556;2023-08-21T05:33:48;13.20;99.90
52743;DHT22;55583;53.012;6.556;2023-08-21T05:36:14;13.20;99.90
52743;DHT22;55583;53.012;6.556;2023-08-21T05:38:40;13.30;99.90
52743;DHT22;55583;53.012;6.556;2023-08-21T05:41:05;13.40;99.90
52743;DHT22;55583;53.012;6.556;2023-08-21T05:43:31;13.40;99.90
52743;DHT22;55583;53.012;6.556;2023-08-21T05:45:57;13.40;99.90
52743;DHT22;55583;53.012;6.556;2023-08-21T05:48:22;13.50;99.90
52743;DHT22;55583;53.012;6.556;2023-08-21T05:50:52;13.50;99.90
52743;DHT22;55583;53.012;6.556;2023-08-21T05:53:18;13.60;99.90
52743;DHT22;55583;53.012;6.556;2023-08-21T05:55:43;13.70;99.90
52743;DHT22;55583;53.012;6.556;2023-08-21T05:58:09;13.90;99.90
52743;DHT22;55583;53.012;6.556;2023-08-21T06:00:35;14.20;99.90
52743;DHT22;55583;53.012;6.556;2023-08-21T06:03:01;14.60;99.90
52743;DHT22;55583;53.012;6.556;2023-08-21T06:05:27;15.00;99.90
52743;DHT22;55583;53.012;6.556;2023-08-21T06:07:53;15.30;99.90
52743;DHT22;55583;53.012;6.556;2023-08-21T06:10:18;15.70;99.90
52743;DHT22;55583;53.012;6.556;2023-08-21T06:12:44;16.10;99.90
52743;DHT22;55583;53.012;6.556;2023-08-21T06:15:10;16.50;99.90
52743;DHT22;55583;53.012;6.556;2023-08-21T06:17:36;16.90;99.90
52743;DHT22;55583;53.012;6.556;2023-08-21T06:20:03;17.30;99.90
52743;DHT22;55583;53.012;6.556;2023-08-21T06:22:31;17.70;99.90
52743;DHT22;55583;53.012;6.556;2023-08-21T06:24:57;18.00;99.90
52743;DHT22;55583;53.012;6.556;2023-08-21T06:27:23;18.20;99.90
52743;DHT22;55583;53.012;6.556;2023-08-21T06:29:48;18.20;99.90
52743;DHT22;55583;53.012;6.556;2023-08-21T06:32:14;18.00;99.90
52743;DHT22;55583;53.012;6.556;2023-08-21T06:34:40;17.80;99.90
52743;DHT22;55583;53.012;6.556;2023-08-21T06:37:05;17.70;99.90
52743;DHT22;55583;53.012;6.556;2023-08-21T06:39:31;17.70;99.90
52743;DHT22;55583;53.012;6.556;2023-08-21T06:41:57;17.50;99.90
52743;DHT22;55583;53.012;6.556;2023-08-21T06:44:23;17.50;99.90
52743;DHT22;55583;53.012;6.556;2023-08-21T06:46:48;17.50;99.90
52743;DHT22;55583;53.012;6.556;2023-08-21T06:49:14;17.40;99.90
52743;DHT22;55583;53.012;6.556;2023-08-21T06:51:40;17.30;99.90
52743;DHT22;55583;53.012;6.556;2023-08-21T06:54:05;17.30;99.90
52743;DHT22;55583;53.012;6.556;2023-08-21T06:56:32;17.20;99.90
52743;DHT22;55583;53.012;6.556;2023-08-21T06:58:57;17.20;99.90
52743;DHT22;55583;53.012;6.556;2023-08-21T07:01:23;17.20;99.90
52743;DHT22;55583;53.012;6.556;2023-08-21T07:03:49;17.20;99.90
52743;DHT22;55583;53.012;6.556;2023-08-21T07:06:14;17.10;99.90
52743;DHT22;55583;53.012;6.556;2023-08-21T07:08:40;17.10;99.90
52743;DHT22;55583;53.012;6.556;2023-08-21T07:11:06;17.20;99.90
52743;DHT22;55583;53.012;6.556;2023-08-21T07:13:36;17.20;99.90
52743;DHT22;55583;53.012;6.556;2023-08-21T07:16:02;17.30;99.90
52743;DHT22;55583;53.012;6.556;2023-08-21T07:18:32;17.30;99.90
52743;DHT22;55583;53.012;6.556;2023-08-21T07:20:57;17.30;99.90
52743;DHT22;55583;53.012;6.556;2023-08-21T07:23:23;17.30;99.90
52743;DHT22;55583;53.012;6.556;2023-08-21T07:25:49;17.40;99.90
52743;DHT22;55583;53.012;6.556;2023-08-21T07:28:14;17.40;99.90
52743;DHT22;55583;53.012;6.556;2023-08-21T07:30:40;17.40;99.90
52743;DHT22;55583;53.012;6.556;2023-08-21T07:33:06;17.50;99.90
52743;DHT22;55583;53.012;6.556;2023-08-21T07:35:32;17.60;99.90
52743;DHT22;55583;53.012;6.556;2023-08-21T07:37:58;17.70;99.90
52743;DHT22;55583;53.012;6.556;2023-08-21T07:40:24;17.80;99.90
52743;DHT22;55583;53.012;6.556;2023-08-21T07:42:49;18.00;99.90
52743;DHT22;55583;53.012;6.556;2023-08-21T07:45:16;18.00;99.90
52743;DHT22;55583;53.012;6.556;2023-08-21T07:47:42;18.10;99.90
52743;DHT22;55583;53.012;6.556;2023-08-21T07:50:08;18.20;99.90
52743;DHT22;55583;53.012;6.556;2023-08-21T07:52:34;18.20;99.90
52743;DHT22;55583;53.012;6.556;2023-08-21T07:55:00;18.30;99.90
52743;DHT22;55583;53.012;6.556;2023-08-21T07:57:27;18.30;99.90
52743;DHT22;55583;53.012;6.556;2023-08-21T07:59:53;18.30;99.90
52743;DHT22;55583;53.012;6.556;2023-08-21T08:02:22;18.40;99.90
52743;DHT22;55583;53.012;6.556;2023-08-21T08:04:48;18.40;99.90
52743;DHT22;55583;53.012;6.556;2023-08-21T08:07:14;18.50;99.90
52743;DHT22;55583;53.012;6.556;2023-08-21T08:09:39;18.60;99.90
52743;DHT22;55583;53.012;6.556;2023-08-21T08:12:05;18.60;99.90
52743;DHT22;55583;53.012;6.556;2023-08-21T08:14:32;18.70;99.90
52743;DHT22;55583;53.012;6.556;2023-08-21T08:16:58;18.80;99.90
52743;DHT22;55583;53.012;6.556;2023-08-21T08:19:24;18.90;99.90
52743;DHT22;55583;53.012;6.556;2023-08-21T08:21:49;19.00;99.90
52743;DHT22;55583;53.012;6.556;2023-08-21T08:24:15;19.10;99.90
52743;DHT22;55583;53.012;6.556;2023-08-21T08:26:41;19.30;99.90
52743;DHT22;55583;53.012;6.556;2023-08-21T08:29:08;19.40;99.90
52743;DHT22;55583;53.012;6.556;2023-08-21T08:31:34;19.50;99.90
52743;DHT22;55583;53.012;6.556;2023-08-21T08:34:00;19.50;99.90
52743;DHT22;55583;53.012;6.556;2023-08-21T08:36:25;19.60;99.90
52743;DHT22;55583;53.012;6.556;2023-08-21T08:38:51;19.70;99.90
52743;DHT22;55583;53.012;6.556;2023-08-21T08:41:27;19.90;99.90
52743;DHT22;55583;53.012;6.556;2023-08-21T08:43:59;19.90;99.90
52743;DHT22;55583;53.012;6.556;2023-08-21T08:46:28;20.10;99.90
52743;DHT22;55583;53.012;6.556;2023-08-21T08:48:54;20.20;99.90
52743;DHT22;55583;53.012;6.556;2023-08-21T08:51:20;20.20;99.90
52743;DHT22;55583;53.012;6.556;2023-08-21T08:53:47;20.30;99.90
52743;DHT22;55583;53.012;6.556;2023-08-21T08:56:13;20.40;99.90
52743;DHT22;55583;53.012;6.556;2023-08-21T08:58:38;20.50;99.90
52743;DHT22;55583;53.012;6.556;2023-08-21T09:01:08;20.60;99.90
52743;DHT22;55583;53.012;6.556;2023-08-21T09:03:36;20.70;99.90
52743;DHT22;55583;53.012;6.556;2023-08-21T09:06:02;20.90;99.90
52743;DHT22;55583;53.012;6.556;2023-08-21T09:08:29;20.90;99.90
52743;DHT22;55583;53.012;6.556;2023-08-21T09:10:54;21.00;99.90
52743;DHT22;55583;53.012;6.556;2023-08-21T09:13:20;21.10;99.90
52743;DHT22;55583;53.012;6.556;2023-08-21T09:15:53;21.20;99.90
52743;DHT22;55583;53.012;6.556;2023-08-21T09:18:19;21.30;99.90
52743;DHT22;55583;53.012;6.556;2023-08-21T09:20:45;21.40;99.90
52743;DHT22;55583;53.012;6.556;2023-08-21T09:23:15;21.50;99.90
52743;DHT22;55583;53.012;6.556;2023-08-21T09:25:47;21.60;99.90
52743;DHT22;55583;53.012;6.556;2023-08-21T09:28:13;21.70;99.90
52743;DHT22;55583;53.012;6.556;2023-08-21T09:30:50;22.00;99.90
52743;DHT22;55583;53.012;6.556;2023-08-21T09:33:23;22.50;95.70
52743;DHT22;55583;53.012;6.556;2023-08-21T09:35:51;22.90;95.40
52743;DHT22;55583;53.012;6.556;2023-08-21T09:38:18;23.20;95.80
52743;DHT22;55583;53.012;6.556;2023-08-21T09:40:51;23.90;95.20
52743;DHT22;55583;53.012;6.556;2023-08-21T09:43:17;25.80;89.70
52743;DHT22;55583;53.012;6.556;2023-08-21T09:45:49;27.90;82.50
52743;DHT22;55583;53.012;6.556;2023-08-21T09:48:18;29.80;68.20
52743;DHT22;55583;53.012;6.556;2023-08-21T09:50:46;31.10;63.90
52743;DHT22;55583;53.012;6.556;2023-08-21T09:53:12;32.30;63.00
52743;DHT22;55583;53.012;6.556;2023-08-21T09:55:38;33.50;60.70
52743;DHT22;55583;53.012;6.556;2023-08-21T09:58:06;34.60;58.20
52743;DHT22;55583;53.012;6.556;2023-08-21T10:00:33;35.40;55.70
52743;DHT22;55583;53.012;6.556;2023-08-21T10:03:06;36.10;54.20
52743;DHT22;55583;53.012;6.556;2023-08-21T10:05:34;36.60;51.50
52743;DHT22;55583;53.012;6.556;2023-08-21T10:08:03;37.00;52.90
52743;DHT22;55583;53.012;6.556;2023-08-21T10:10:36;37.30;51.50
52743;DHT22;55583;53.012;6.556;2023-08-21T10:13:03;37.70;49.50
52743;DHT22;55583;53.012;6.556;2023-08-21T10:15:30;37.90;49.40
52743;DHT22;55583;53.012;6.556;2023-08-21T10:17:56;38.10;48.50
52743;DHT22;55583;53.012;6.556;2023-08-21T10:20:23;38.30;48.90
52743;DHT22;55583;53.012;6.556;2023-08-21T10:22:52;38.30;47.60
52743;DHT22;55583;53.012;6.556;2023-08-21T10:25:24;38.40;47.50
52743;DHT22;55583;53.012;6.556;2023-08-21T10:27:56;38.90;47.00
52743;DHT22;55583;53.012;6.556;2023-08-21T10:30:24;39.40;45.70
52743;DHT22;55583;53.012;6.556;2023-08-21T10:32:52;39.40;45.60
52743;DHT22;55583;53.012;6.556;2023-08-21T10:35:20;39.30;45.70
52743;DHT22;55583;53.012;6.556;2023-08-21T10:38:14;39.60;45.90
52743;DHT22;55583;53.012;6.556;2023-08-21T10:41:08;40.00;42.80
52743;DHT22;55583;53.012;6.556;2023-08-21T10:46:02;40.00;44.10
52743;DHT22;55583;53.012;6.556;2023-08-21T10:48:28;40.20;44.10
52743;DHT22;55583;53.012;6.556;2023-08-21T10:50:54;40.00;44.10
52743;DHT22;55583;53.012;6.556;2023-08-21T10:53:21;40.20;43.30
52743;DHT22;55583;53.012;6.556;2023-08-21T10:55:55;40.50;43.80
52743;DHT22;55583;53.012;6.556;2023-08-21T10:58:21;40.80;43.30
52743;DHT22;55583;53.012;6.556;2023-08-21T11:00:47;40.80;43.70
52743;DHT22;55583;53.012;6.556;2023-08-21T11:03:15;40.60;43.50
52743;DHT22;55583;53.012;6.556;2023-08-21T11:05:40;40.50;44.00
52743;DHT22;55583;53.012;6.556;2023-08-21T11:08:06;40.10;42.70
52743;DHT22;55583;53.012;6.556;2023-08-21T11:10:32;40.10;43.20
52743;DHT22;55583;53.012;6.556;2023-08-21T11:12:58;40.40;42.60
52743;DHT22;55583;53.012;6.556;2023-08-21T11:15:28;40.70;42.10
52743;DHT22;55583;53.012;6.556;2023-08-21T11:17:58;40.80;41.70
52743;DHT22;55583;53.012;6.556;2023-08-21T11:20:32;40.40;42.00
52743;DHT22;55583;53.012;6.556;2023-08-21T11:22:59;40.80;42.00
52743;DHT22;55583;53.012;6.556;2023-08-21T11:25:26;41.40;41.70
52743;DHT22;55583;53.012;6.556;2023-08-21T11:27:53;41.50;41.10
52743;DHT22;55583;53.012;6.556;2023-08-21T11:30:19;41.30;41.10
52743;DHT22;55583;53.012;6.556;2023-08-21T11:32:47;41.00;41.30
52743;DHT22;55583;53.012;6.556;2023-08-21T11:35:12;41.20;42.30
52743;DHT22;55583;53.012;6.556;2023-08-21T11:37:43;41.40;41.40
52743;DHT22;55583;53.012;6.556;2023-08-21T11:40:11;41.50;40.80
52743;DHT22;55583;53.012;6.556;2023-08-21T11:42:38;41.30;41.40
52743;DHT22;55583;53.012;6.556;2023-08-21T11:45:04;41.70;41.20
52743;DHT22;55583;53.012;6.556;2023-08-21T11:47:34;42.00;40.90
52743;DHT22;55583;53.012;6.556;2023-08-21T11:50:07;41.90;40.90
52743;DHT22;55583;53.012;6.556;2023-08-21T11:52:36;41.30;40.70
52743;DHT22;55583;53.012;6.556;2023-08-21T11:55:07;40.50;42.30
52743;DHT22;55583;53.012;6.556;2023-08-21T11:57:33;40.10;42.50
52743;DHT22;55583;53.012;6.556;2023-08-21T11:59:59;40.40;42.90
52743;DHT22;55583;53.012;6.556;2023-08-21T12:02:26;40.30;42.10
52743;DHT22;55583;53.012;6.556;2023-08-21T12:05:04;40.60;42.50
52743;DHT22;55583;53.012;6.556;2023-08-21T12:07:33;41.20;41.10
52743;DHT22;55583;53.012;6.556;2023-08-21T12:09:59;41.20;41.20
52743;DHT22;55583;53.012;6.556;2023-08-21T12:12:25;41.20;41.10
52743;DHT22;55583;53.012;6.556;2023-08-21T12:14:50;41.00;41.80
52743;DHT22;55583;53.012;6.556;2023-08-21T12:17:16;41.20;41.20
52743;DHT22;55583;53.012;6.556;2023-08-21T12:19:42;41.40;41.00
52743;DHT22;55583;53.012;6.556;2023-08-21T12:22:09;41.50;40.60
52743;DHT22;55583;53.012;6.556;2023-08-21T12:24:35;40.70;41.10
52743;DHT22;55583;53.012;6.556;2023-08-21T12:27:03;39.70;41.70
52743;DHT22;55583;53.012;6.556;2023-08-21T12:29:28;39.10;42.20
52743;DHT22;55583;53.012;6.556;2023-08-21T12:31:54;39.10;42.40
52743;DHT22;55583;53.012;6.556;2023-08-21T12:34:20;38.80;42.80
52743;DHT22;55583;53.012;6.556;2023-08-21T12:36:46;38.80;42.60
52743;DHT22;55583;53.012;6.556;2023-08-21T12:39:11;39.00;43.20
52743;DHT22;55583;53.012;6.556;2023-08-21T12:41:37;39.00;43.40
52743;DHT22;55583;53.012;6.556;2023-08-21T12:44:03;39.00;43.30
52743;DHT22;55583;53.012;6.556;2023-08-21T12:46:29;38.90;43.00
52743;DHT22;55583;53.012;6.556;2023-08-21T12:48:58;38.80;42.90
52743;DHT22;55583;53.012;6.556;2023-08-21T12:51:24;38.30;43.20
52743;DHT22;55583;53.012;6.556;2023-08-21T12:53:50;38.20;43.50
52743;DHT22;55583;53.012;6.556;2023-08-21T12:56:16;38.40;43.70
52743;DHT22;55583;53.012;6.556;2023-08-21T12:58:42;38.40;43.60
52743;DHT22;55583;53.012;6.556;2023-08-21T13:01:07;37.90;43.90
52743;DHT22;55583;53.012;6.556;2023-08-21T13:03:34;37.60;44.40
52743;DHT22;55583;53.012;6.556;2023-08-21T13:05:59;37.60;44.50
52743;DHT22;55583;53.012;6.556;2023-08-21T13:08:25;37.90;45.00
52743;DHT22;55583;53.012;6.556;2023-08-21T13:10:50;37.80;44.70
52743;DHT22;55583;53.012;6.556;2023-08-21T13:13:16;37.30;45.10
52743;DHT22;55583;53.012;6.556;2023-08-21T13:15:42;36.80;44.40
52743;DHT22;55583;53.012;6.556;2023-08-21T13:18:10;36.40;44.30
52743;DHT22;55583;53.012;6.556;2023-08-21T13:20:36;36.50;44.60
52743;DHT22;55583;53.012;6.556;2023-08-21T13:23:02;36.80;45.90
52743;DHT22;55583;53.012;6.556;2023-08-21T13:25:27;37.30;45.40
52743;DHT22;55583;53.012;6.556;2023-08-21T13:27:55;37.60;44.80
52743;DHT22;55583;53.012;6.556;2023-08-21T13:30:20;37.80;44.80
52743;DHT22;55583;53.012;6.556;2023-08-21T13:32:47;37.90;44.80
52743;DHT22;55583;53.012;6.556;2023-08-21T13:35:13;37.90;45.40
52743;DHT22;55583;53.012;6.556;2023-08-21T13:37:39;37.90;45.50
52743;DHT22;55583;53.012;6.556;2023-08-21T13:40:06;37.80;44.60
52743;DHT22;55583;53.012;6.556;2023-08-21T13:42:43;37.50;44.30
52743;DHT22;55583;53.012;6.556;2023-08-21T13:45:11;37.00;45.20
52743;DHT22;55583;53.012;6.556;2023-08-21T13:47:39;36.40;45.20
52743;DHT22;55583;53.012;6.556;2023-08-21T13:50:05;36.10;45.40
52743;DHT22;55583;53.012;6.556;2023-08-21T13:52:31;35.90;46.70
52743;DHT22;55583;53.012;6.556;2023-08-21T13:54:58;35.60;46.30
52743;DHT22;55583;53.012;6.556;2023-08-21T13:57:24;35.70;46.30
52743;DHT22;55583;53.012;6.556;2023-08-21T13:59:50;35.80;45.00
52743;DHT22;55583;53.012;6.556;2023-08-21T14:02:16;36.00;45.20
52743;DHT22;55583;53.012;6.556;2023-08-21T14:04:44;36.20;46.00
52743;DHT22;55583;53.012;6.556;2023-08-21T14:07:09;36.30;45.20
52743;DHT22;55583;53.012;6.556;2023-08-21T14:09:35;36.20;44.20
52743;DHT22;55583;53.012;6.556;2023-08-21T14:12:02;36.10;44.70
52743;DHT22;55583;53.012;6.556;2023-08-21T14:14:27;36.10;44.80
52743;DHT22;55583;53.012;6.556;2023-08-21T14:16:53;36.10;45.30
52743;DHT22;55583;53.012;6.556;2023-08-21T14:19:19;36.20;45.00
52743;DHT22;55583;53.012;6.556;2023-08-21T14:21:44;36.10;45.60
52743;DHT22;55583;53.012;6.556;2023-08-21T14:24:10;35.90;44.80
52743;DHT22;55583;53.012;6.556;2023-08-21T14:26:36;35.50;44.90
52743;DHT22;55583;53.012;6.556;2023-08-21T14:29:01;35.20;46.20
52743;DHT22;55583;53.012;6.556;2023-08-21T14:31:27;35.20;46.40
52743;DHT22;55583;53.012;6.556;2023-08-21T14:33:53;35.40;45.40
52743;DHT22;55583;53.012;6.556;2023-08-21T14:36:19;35.50;44.60
52743;DHT22;55583;53.012;6.556;2023-08-21T14:38:45;35.50;44.70
52743;DHT22;55583;53.012;6.556;2023-08-21T14:41:10;35.80;44.70
52743;DHT22;55583;53.012;6.556;2023-08-21T14:43:36;35.80;44.00
52743;DHT22;55583;53.012;6.556;2023-08-21T14:46:02;35.70;43.80
52743;DHT22;55583;53.012;6.556;2023-08-21T14:48:29;35.50;44.10
52743;DHT22;55583;53.012;6.556;2023-08-21T14:50:55;35.50;44.30
52743;DHT22;55583;53.012;6.556;2023-08-21T14:53:21;35.30;44.70
52743;DHT22;55583;53.012;6.556;2023-08-21T14:55:46;35.00;44.30
52743;DHT22;55583;53.012;6.556;2023-08-21T14:58:12;35.00;44.60
52743;DHT22;55583;53.012;6.556;2023-08-21T15:00:37;35.00;45.50
52743;DHT22;55583;53.012;6.556;2023-08-21T15:03:03;35.10;46.20
52743;DHT22;55583;53.012;6.556;2023-08-21T15:05:29;35.20;45.60
52743;DHT22;55583;53.012;6.556;2023-08-21T15:07:55;35.10;45.40
52743;DHT22;55583;53.012;6.556;2023-08-21T15:10:21;35.10;45.90
52743;DHT22;55583;53.012;6.556;2023-08-21T15:12:47;35.00;44.90
52743;DHT22;55583;53.012;6.556;2023-08-21T15:15:12;34.60;45.10
52743;DHT22;55583;53.012;6.556;2023-08-21T15:17:38;33.90;45.30
52743;DHT22;55583;53.012;6.556;2023-08-21T15:20:04;33.60;46.30
52743;DHT22;55583;53.012;6.556;2023-08-21T15:22:31;33.40;46.40
52743;DHT22;55583;53.012;6.556;2023-08-21T15:24:56;33.40;46.00
52743;DHT22;55583;53.012;6.556;2023-08-21T15:27:22;33.40;46.50
52743;DHT22;55583;53.012;6.556;2023-08-21T15:29:47;33.70;47.40
52743;DHT22;55583;53.012;6.556;2023-08-21T15:32:13;33.70;46.70